Time;durP1;ratioP1;P1;durP2;ratioP2;P2;SDS_P1;SDS_P2;PMS_P1;PMS_P2;Temp;Humidity;BMP_temperature;BMP_pressure;BME280_temperature;BME280_humidity;BME280_pressure;Samples;Min_cycle;Max_cycle;Signal;HPM_P1;HPM_P2
2024/03/03 00:00:12;;;;;;;;;;;;;;;;;;2210701;59;2505;-83
2024/03/03 00:02:42;;;;;;;;;;;;;;;;;;2210805;66;1629;-83
2024/03/03 00:05:13;;;;;;;;;;;;;;;;;;2211018;66;1557;-83
2024/03/03 00:07:43;;;;;;;;;;;;;;;;;;2209905;59;1450;-83
2024/03/03 00:10:13;;;;;;;;;;;;;;;;;;2210058;59;1439;-83
2024/03/03 00:12:44;;;;;;;;;;;;;;;;;;2211060;59;1432;-83
2024/03/03 00:15:14;;;;;;;;;;;;;;;;;;2210738;59;1609;-83
2024/03/03 00:17:44;;;;;;;;;;;;;;;;;;2211495;59;1450;-83
2024/03/03 00:20:14;;;;;;;;;;;;;;;;;;2209758;60;1994;-82
2024/03/03 00:22:45;;;;;;;;;;;;;;;;;;2209935;66;1801;-83
2024/03/03 00:25:15;;;;;;;;;;;;;;;;;;2210187;60;1404;-83
2024/03/03 00:27:45;;;;;;;;;;;;;;;;;;2211069;59;1323;-83
2024/03/03 00:30:15;;;;;;;;;;;;;;;;;;2206467;66;1718;-83
2024/03/03 00:32:45;;;;;;;;;;;;;;;;;;2210812;59;1308;-83
2024/03/03 00:35:16;;;;;;;;;;;;;;;;;;2208271;59;1557;-83
2024/03/03 00:37:46;;;;;;;;;;;;;;;;;;2216682;59;1587;-83
2024/03/03 00:40:16;;;;;;;;;;;;;;;;;;2221275;59;1986;-83
2024/03/03 00:42:46;;;;;;;;;;;;;;;;;;2221336;59;1323;-83
2024/03/03 00:45:17;;;;;;;;;;;;;;;;;;2222110;66;1812;-83
2024/03/03 00:47:48;;;;;;;;;;;;;;;;;;2224192;66;1593;-82
2024/03/03 00:50:18;;;;;;;;;;;;;;;;;;2220581;66;1238;-83
2024/03/03 00:52:54;;;;;;;;;;;;;;;;;;2214313;59;1493;-82
2024/03/03 00:55:24;;;;;;;;;;;;;;;;;;2213325;66;1171;-83
2024/03/03 00:57:54;;;;;;;;;;;;;;;;;;2212453;66;1204;-83
2024/03/03 01:00:24;;;;;;;;;;;;;;;;;;2209982;67;1941;-83
2024/03/03 01:02:55;;;;;;;;;;;;;;;;;;2214961;66;1382;-83
2024/03/03 01:05:25;;;;;;;;;;;;;;;;;;2222117;66;1131;-83
2024/03/03 01:07:55;;;;;;;;;;;;;;;;;;2220775;66;1526;-83
2024/03/03 01:10:26;;;;;;;;;;;;;;;;;;2219071;59;1333;-83
2024/03/03 01:12:56;;;;;;;;;;;;;;;;;;2222634;66;1390;-83
2024/03/03 01:15:26;;;;;;;;;;;;;;;;;;2221143;67;1223;-83
2024/03/03 01:17:56;;;;;;;;;;;;;;;;;;2216254;66;1511;-83
2024/03/03 01:20:27;;;;;;;;;;;;;;;;;;2212287;67;1950;-83
2024/03/03 01:22:57;;;;;;;;;;;;;;;;;;2211299;66;1344;-83
2024/03/03 01:25:29;;;;;;;;;;;;;;;;;;2212293;66;1549;-83
2024/03/03 01:27:59;;;;;;;;;;;;;;;;;;2211467;59;1853;-82
2024/03/03 01:30:29;;;;;;;;;;;;;;;;;;2208569;59;2176;-83
2024/03/03 01:32:59;;;;;;;;;;;;;;;;;;2209549;59;1698;-83
2024/03/03 01:35:29;;;;;;;;;;;;;;;;;;2209168;67;1967;-83
2024/03/03 01:37:59;;;;;;;;;;;;;;;;;;2210628;59;2060;-83
2024/03/03 01:40:30;;;;;;;;;;;;;;;;;;2212019;59;1937;-83
2024/03/03 01:43:02;;;;;;;;;;;;;;;;;;2212387;66;1550;-83
2024/03/03 01:45:32;;;;;;;;;;;;;;;;;;2208935;59;1730;-83
2024/03/03 01:48:03;;;;;;;;;;;;;;;;;;2211973;66;1652;-83
2024/03/03 01:50:34;;;;;;;;;;;;;;;;;;2214154;59;1258;-83
2024/03/03 01:53:06;;;;;;;;;;;;;;;;;;2216873;66;1440;-83
2024/03/03 01:55:37;;;;;;;;;;;;;;;;;;2217627;66;1412;-83
2024/03/03 01:58:08;;;;;;;;;;;;;;;;;;2210794;66;1454;-83
2024/03/03 02:00:39;;;;;;;;;;;;;;;;;;2212391;66;1939;-83
2024/03/03 02:03:09;;;;;;;;;;;;;;;;;;2210228;66;1767;-83
2024/03/03 02:05:39;;;;;;;;;;;;;;;;;;2211198;66;1588;-82
2024/03/03 02:08:10;;;;;;;;;;;;;;;;;;2210501;59;1624;-83
2024/03/03 02:10:41;;;;;;;;;;;;;;;;;;2210970;59;1605;-83
2024/03/03 02:13:11;;;;;;;;;;;;;;;;;;2211208;59;2242;-83
2024/03/03 02:15:41;;;;;;;;;;;;;;;;;;2211207;59;2405;-84
2024/03/03 02:18:11;;;;;;;;;;;;;;;;;;2210474;66;1326;-83
2024/03/03 02:20:41;;;;;;;;;;;;;;;;;;2211467;66;1928;-83
2024/03/03 02:23:12;;;;;;;;;;;;;;;;;;2207806;67;1745;-83
2024/03/03 02:25:42;;;;;;;;;;;;;;;;;;2212083;66;1351;-83
2024/03/03 02:28:13;;;;;;;;;;;;;;;;;;2210773;66;1324;-83
2024/03/03 02:30:43;;;;;;;;;;;;;;;;;;2211469;66;1874;-83
2024/03/03 02:33:14;;;;;;;;;;;;;;;;;;2211517;59;1490;-83
2024/03/03 02:35:44;;;;;;;;;;;;;;;;;;2208861;67;1531;-83
2024/03/03 02:38:14;;;;;;;;;;;;;;;;;;2210529;59;1590;-83
2024/03/03 02:40:44;;;;;;;;;;;;;;;;;;2211373;59;1954;-83
2024/03/03 02:43:14;;;;;;;;;;;;;;;;;;2210265;59;1740;-82
2024/03/03 02:45:45;;;;;;;;;;;;;;;;;;2208276;59;1744;-83
2024/03/03 02:48:17;;;;;;;;;;;;;;;;;;2207985;59;1536;-83
2024/03/03 02:50:47;;;;;;;;;;;;;;;;;;2208508;60;1652;-82
2024/03/03 02:53:17;;;;;;;;;;;;;;;;;;2208062;66;1530;-83
2024/03/03 02:55:48;;;;;;;;;;;;;;;;;;2212542;66;1701;-83
2024/03/03 02:58:18;;;;;;;;;;;;;;;;;;2208792;66;1471;-83
2024/03/03 03:00:48;;;;;;;;;;;;;;;;;;2208647;66;2337;-84
2024/03/03 03:03:18;;;;;;;;;;;;;;;;;;2212195;59;1767;-83
2024/03/03 03:05:48;;;;;;;;;;;;;;;;;;2211620;66;1718;-82
2024/03/03 03:08:19;;;;;;;;;;;;;;;;;;2211588;59;1369;-83
2024/03/03 03:10:49;;;;;;;;;;;;;;;;;;2210721;66;1473;-83
2024/03/03 03:13:20;;;;;;;;;;;;;;;;;;2212175;59;1431;-83
2024/03/03 03:15:50;;;;;;;;;;;;;;;;;;2213619;66;1872;-83
2024/03/03 03:18:20;;;;;;;;;;;;;;;;;;2214304;59;1163;-83
2024/03/03 03:20:50;;;;;;;;;;;;;;;;;;2215306;66;1939;-83
2024/03/03 03:23:22;;;;;;;;;;;;;;;;;;2213973;66;1748;-83
2024/03/03 03:25:53;;;;;;;;;;;;;;;;;;2221834;67;1272;-84
2024/03/03 03:28:23;;;;;;;;;;;;;;;;;;2225688;66;1236;-83
2024/03/03 03:30:53;;;;;;;;;;;;;;;;;;2222538;66;1302;-83
2024/03/03 03:33:23;;;;;;;;;;;;;;;;;;2223875;66;1265;-83
2024/03/03 03:35:53;;;;;;;;;;;;;;;;;;2223162;66;1457;-83
2024/03/03 03:38:24;;;;;;;;;;;;;;;;;;2219794;66;1401;-83
2024/03/03 03:40:54;;;;;;;;;;;;;;;;;;2210450;59;1940;-83
2024/03/03 03:43:24;;;;;;;;;;;;;;;;;;2212836;66;1555;-83
2024/03/03 03:45:54;;;;;;;;;;;;;;;;;;2211837;59;1754;-83
2024/03/03 03:48:24;;;;;;;;;;;;;;;;;;2212372;66;1667;-83
2024/03/03 03:50:55;;;;;;;;;;;;;;;;;;2212557;60;1426;-83
2024/03/03 03:53:25;;;;;;;;;;;;;;;;;;2212171;66;1395;-83
2024/03/03 03:55:55;;;;;;;;;;;;;;;;;;2211915;66;1522;-82
2024/03/03 03:58:25;;;;;;;;;;;;;;;;;;2211899;66;1753;-82
2024/03/03 04:00:55;;;;;;;;;;;;;;;;;;2208105;66;2049;-83
2024/03/03 04:03:25;;;;;;;;;;;;;;;;;;2212077;59;1587;-83
2024/03/03 04:05:56;;;;;;;;;;;;;;;;;;2209491;66;1461;-83
2024/03/03 04:08:26;;;;;;;;;;;;;;;;;;2210831;59;1708;-83
2024/03/03 04:10:58;;;;;;;;;;;;;;;;;;2211820;66;1767;-82
2024/03/03 04:13:29;;;;;;;;;;;;;;;;;;2211343;59;1321;-83
2024/03/03 04:15:59;;;;;;;;;;;;;;;;;;2212736;66;1400;-83
2024/03/03 04:18:29;;;;;;;;;;;;;;;;;;2211443;59;1555;-83
2024/03/03 04:21:00;;;;;;;;;;;;;;;;;;2208380;67;1945;-83
2024/03/03 04:23:30;;;;;;;;;;;;;;;;;;2212720;66;1528;-83
2024/03/03 04:26:05;;;;;;;;;;;;;;;;;;2211739;66;1485;-84
2024/03/03 04:28:36;;;;;;;;;;;;;;;;;;2212784;61;1753;-83
2024/03/03 04:31:06;;;;;;;;;;;;;;;;;;2211872;66;1260;-83
2024/03/03 04:33:37;;;;;;;;;;;;;;;;;;2212943;66;1896;-82
2024/03/03 04:36:14;;;;;;;;;;;;;;;;;;2212136;66;1390;-83
2024/03/03 04:38:44;;;;;;;;;;;;;;;;;;2212794;59;1428;-83
2024/03/03 04:41:18;;;;;;;;;;;;;;;;;;2211185;59;2018;-83
2024/03/03 04:43:49;;;;;;;;;;;;;;;;;;2212714;59;1584;-83
2024/03/03 04:46:19;;;;;;;;;;;;;;;;;;2211902;59;1570;-83
2024/03/03 04:48:49;;;;;;;;;;;;;;;;;;2210788;66;1673;-83
2024/03/03 04:51:20;;;;;;;;;;;;;;;;;;2212634;66;1461;-83
2024/03/03 04:53:50;;;;;;;;;;;;;;;;;;2212970;66;1938;-83
2024/03/03 04:56:20;;;;;;;;;;;;;;;;;;2211597;66;1656;-82
2024/03/03 04:58:50;;;;;;;;;;;;;;;;;;2211967;66;1381;-83
2024/03/03 05:01:20;;;;;;;;;;;;;;;;;;2212161;66;1943;-83
2024/03/03 05:03:51;;;;;;;;;;;;;;;;;;2212748;66;1326;-82
2024/03/03 05:06:21;;;;;;;;;;;;;;;;;;2211570;59;1455;-82
2024/03/03 05:08:51;;;;;;;;;;;;;;;;;;2211048;59;1731;-83
2024/03/03 05:11:22;;;;;;;;;;;;;;;;;;2208458;66;1610;-83
2024/03/03 05:13:52;;;;;;;;;;;;;;;;;;2211667;59;1437;-83
2024/03/03 05:16:22;;;;;;;;;;;;;;;;;;2211802;66;1241;-82
2024/03/03 05:18:54;;;;;;;;;;;;;;;;;;2213711;66;1720;-82
2024/03/03 05:21:24;;;;;;;;;;;;;;;;;;2211348;66;1993;-83
2024/03/03 05:23:54;;;;;;;;;;;;;;;;;;2212983;66;1422;-83
2024/03/03 05:26:25;;;;;;;;;;;;;;;;;;2213621;59;1488;-83
2024/03/03 05:28:55;;;;;;;;;;;;;;;;;;2213689;67;1684;-84
2024/03/03 05:31:30;;;;;;;;;;;;;;;;;;2219086;66;1431;-83
2024/03/03 05:34:01;;;;;;;;;;;;;;;;;;2221657;67;1507;-82
2024/03/03 05:36:33;;;;;;;;;;;;;;;;;;2226204;66;1260;-83
2024/03/03 05:39:03;;;;;;;;;;;;;;;;;;2223176;59;2016;-83
2024/03/03 05:41:34;;;;;;;;;;;;;;;;;;2225131;66;1990;-83
2024/03/03 05:44:04;;;;;;;;;;;;;;;;;;2219885;67;2041;-83
2024/03/03 05:46:35;;;;;;;;;;;;;;;;;;2222107;66;1677;-83
2024/03/03 05:49:05;;;;;;;;;;;;;;;;;;2218659;66;1472;-83
2024/03/03 05:51:36;;;;;;;;;;;;;;;;;;2209696;67;1470;-83
2024/03/03 05:54:06;;;;;;;;;;;;;;;;;;2212114;66;1629;-83
2024/03/03 05:56:36;;;;;;;;;;;;;;;;;;2208358;59;1593;-83
2024/03/03 05:59:07;;;;;;;;;;;;;;;;;;2212914;66;1258;-83
2024/03/03 06:01:37;;;;;;;;;;;;;;;;;;2207582;66;1937;-83
2024/03/03 06:04:08;;;;;;;;;;;;;;;;;;2211794;59;1250;-83
2024/03/03 06:06:38;;;;;;;;;;;;;;;;;;2211614;66;1534;-83
2024/03/03 06:09:12;;;;;;;;;;;;;;;;;;2211028;59;1489;-83
2024/03/03 06:11:42;;;;;;;;;;;;;;;;;;2212987;66;1604;-83
2024/03/03 06:14:14;;;;;;;;;;;;;;;;;;2213977;66;1385;-83
2024/03/03 06:16:44;;;;;;;;;;;;;;;;;;2215189;66;1615;-82
2024/03/03 06:19:14;;;;;;;;;;;;;;;;;;2212960;66;1536;-83
2024/03/03 06:21:49;;;;;;;;;;;;;;;;;;2212812;59;1925;-83
2024/03/03 06:24:20;;;;;;;;;;;;;;;;;;2211439;59;1296;-83
2024/03/03 06:26:50;;;;;;;;;;;;;;;;;;2212922;66;1729;-83
2024/03/03 06:29:20;;;;;;;;;;;;;;;;;;2212385;66;1628;-83
2024/03/03 06:31:51;;;;;;;;;;;;;;;;;;2213080;66;1508;-82
2024/03/03 06:34:21;;;;;;;;;;;;;;;;;;2212486;66;1308;-83
2024/03/03 06:36:51;;;;;;;;;;;;;;;;;;2212550;66;1365;-83
2024/03/03 06:39:21;;;;;;;;;;;;;;;;;;2212106;59;3008;-83
2024/03/03 06:41:51;;;;;;;;;;;;;;;;;;2211746;66;1994;-83
2024/03/03 06:44:21;;;;;;;;;;;;;;;;;;2213044;66;1213;-83
2024/03/03 06:46:52;;;;;;;;;;;;;;;;;;2216406;59;1404;-84
2024/03/03 06:49:22;;;;;;;;;;;;;;;;;;2223888;66;1158;-83
2024/03/03 06:51:52;;;;;;;;;;;;;;;;;;2210276;67;1525;-83
2024/03/03 06:54:22;;;;;;;;;;;;;;;;;;2212067;59;1512;-83
2024/03/03 06:56:52;;;;;;;;;;;;;;;;;;2209901;59;1602;-83
2024/03/03 06:59:23;;;;;;;;;;;;;;;;;;2208523;66;1261;-83
2024/03/03 07:01:53;;;;;;;;;;;;;;;;;;2212044;66;1951;-83
2024/03/03 07:04:26;;;;;;;;;;;;;;;;;;2211521;59;1730;-83
2024/03/03 07:06:57;;;;;;;;;;;;;;;;;;2209873;67;1911;-83
2024/03/03 07:09:28;;;;;;;;;;;;;;;;;;2211614;59;1631;-84
2024/03/03 07:12:01;;;;;;;;;;;;;;;;;;2211515;66;1446;-83
2024/03/03 07:14:32;;;;;;;;;;;;;;;;;;2213507;59;1310;-83
2024/03/03 07:17:02;;;;;;;;;;;;;;;;;;2213310;59;1727;-83
2024/03/03 07:19:33;;;;;;;;;;;;;;;;;;2212307;66;2424;-83
2024/03/03 07:22:03;;;;;;;;;;;;;;;;;;2213865;66;2005;-83
2024/03/03 07:24:33;;;;;;;;;;;;;;;;;;2212652;66;1534;-83
2024/03/03 07:27:03;;;;;;;;;;;;;;;;;;2213023;66;1553;-83
2024/03/03 07:29:35;;;;;;;;;;;;;;;;;;2213102;60;1931;-83
2024/03/03 07:32:05;;;;;;;;;;;;;;;;;;2213723;66;1656;-83
2024/03/03 07:34:35;;;;;;;;;;;;;;;;;;2213101;66;1876;-83
2024/03/03 07:37:06;;;;;;;;;;;;;;;;;;2213248;66;1558;-83
2024/03/03 07:39:36;;;;;;;;;;;;;;;;;;2213378;59;3008;-83
2024/03/03 07:42:06;;;;;;;;;;;;;;;;;;2213277;66;1931;-83
2024/03/03 07:44:36;;;;;;;;;;;;;;;;;;2213713;59;1376;-83
2024/03/03 07:47:07;;;;;;;;;;;;;;;;;;2212909;59;1574;-82
2024/03/03 07:49:37;;;;;;;;;;;;;;;;;;2213794;59;1308;-83
2024/03/03 07:52:07;;;;;;;;;;;;;;;;;;2212912;66;1594;-83
2024/03/03 07:54:37;;;;;;;;;;;;;;;;;;2213587;66;1294;-83
2024/03/03 07:57:07;;;;;;;;;;;;;;;;;;2213953;66;1333;-83
2024/03/03 07:59:37;;;;;;;;;;;;;;;;;;2213336;66;1708;-83
2024/03/03 08:02:08;;;;;;;;;;;;;;;;;;2211878;66;1952;-83
2024/03/03 08:04:38;;;;;;;;;;;;;;;;;;2209703;59;1664;-83
2024/03/03 08:07:08;;;;;;;;;;;;;;;;;;2209327;66;1705;-81
2024/03/03 08:09:39;;;;;;;;;;;;;;;;;;2212778;59;1886;-82
2024/03/03 08:12:09;;;;;;;;;;;;;;;;;;2211787;66;2108;-83
2024/03/03 08:14:40;;;;;;;;;;;;;;;;;;2212023;59;2134;-83
2024/03/03 08:17:10;;;;;;;;;;;;;;;;;;2212103;66;1642;-81
2024/03/03 08:19:40;;;;;;;;;;;;;;;;;;2212434;66;1259;-80
2024/03/03 08:22:11;;;;;;;;;;;;;;;;;;2212929;59;1948;-80
2024/03/03 08:24:41;;;;;;;;;;;;;;;;;;2212305;66;1543;-83
2024/03/03 08:27:11;;;;;;;;;;;;;;;;;;2212387;66;1515;-83
2024/03/03 08:29:41;;;;;;;;;;;;;;;;;;2208336;66;1746;-83
2024/03/03 08:32:12;;;;;;;;;;;;;;;;;;2209536;59;1887;-83
2024/03/03 08:34:42;;;;;;;;;;;;;;;;;;2212513;59;1614;-83
2024/03/03 08:37:12;;;;;;;;;;;;;;;;;;2212517;66;1533;-83
2024/03/03 08:39:42;;;;;;;;;;;;;;;;;;2213315;59;3072;-83
2024/03/03 08:42:14;;;;;;;;;;;;;;;;;;2212172;66;2018;-83
2024/03/03 08:44:44;;;;;;;;;;;;;;;;;;2212499;59;1556;-83
2024/03/03 08:47:14;;;;;;;;;;;;;;;;;;2212856;60;1449;-84
2024/03/03 08:49:44;;;;;;;;;;;;;;;;;;2212242;66;1398;-83
2024/03/03 08:52:15;;;;;;;;;;;;;;;;;;2206864;66;1860;-83
2024/03/03 08:54:45;;;;;;;;;;;;;;;;;;2212388;66;2225;-83
2024/03/03 08:57:16;;;;;;;;;;;;;;;;;;2212123;63;1368;-83
2024/03/03 08:59:46;;;;;;;;;;;;;;;;;;2212228;59;2303;-83
2024/03/03 09:02:16;;;;;;;;;;;;;;;;;;2211687;66;1468;-83
2024/03/03 09:04:46;;;;;;;;;;;;;;;;;;2211873;59;1771;-84
2024/03/03 09:07:17;;;;;;;;;;;;;;;;;;2209896;67;1467;-81
2024/03/03 09:09:47;;;;;;;;;;;;;;;;;;2212794;59;1655;-81
2024/03/03 09:12:18;;;;;;;;;;;;;;;;;;2208406;67;1924;-81
2024/03/03 09:14:48;;;;;;;;;;;;;;;;;;2211853;59;1478;-82
2024/03/03 09:17:18;;;;;;;;;;;;;;;;;;2213214;59;1671;-81
2024/03/03 09:19:49;;;;;;;;;;;;;;;;;;2213131;66;1992;-81
2024/03/03 09:22:20;;;;;;;;;;;;;;;;;;2213591;59;1704;-81
2024/03/03 09:24:50;;;;;;;;;;;;;;;;;;2213338;66;1424;-81
2024/03/03 09:27:23;;;;;;;;;;;;;;;;;;2212937;66;2357;-81
2024/03/03 09:29:54;;;;;;;;;;;;;;;;;;2212471;59;2013;-81
2024/03/03 09:32:24;;;;;;;;;;;;;;;;;;2212125;59;2667;-81
2024/03/03 09:34:54;;;;;;;;;;;;;;;;;;2211551;66;1237;-81
2024/03/03 09:37:24;;;;;;;;;;;;;;;;;;2212118;60;1575;-81
2024/03/03 09:39:54;;;;;;;;;;;;;;;;;;2212003;59;2453;-81
2024/03/03 09:42:25;;;;;;;;;;;;;;;;;;2211924;60;1611;-81
2024/03/03 09:44:57;;;;;;;;;;;;;;;;;;2212137;59;1346;-81
2024/03/03 09:47:29;;;;;;;;;;;;;;;;;;2212451;66;1330;-82
2024/03/03 09:50:00;;;;;;;;;;;;;;;;;;2212168;66;1082;-81
2024/03/03 09:52:31;;;;;;;;;;;;;;;;;;2212983;66;1767;-81
2024/03/03 09:55:01;;;;;;;;;;;;;;;;;;2209418;59;1794;-81
2024/03/03 09:57:32;;;;;;;;;;;;;;;;;;2214783;59;1536;-82
2024/03/03 10:00:03;;;;;;;;;;;;;;;;;;2220667;66;2006;-81
2024/03/03 10:02:35;;;;;;;;;;;;;;;;;;2216958;59;2517;-81
2024/03/03 10:05:09;;;;;;;;;;;;;;;;;;2212885;59;1766;-81
2024/03/03 10:07:40;;;;;;;;;;;;;;;;;;2213100;66;1469;-81
2024/03/03 10:10:14;;;;;;;;;;;;;;;;;;2213178;59;1745;-81
2024/03/03 10:12:46;;;;;;;;;;;;;;;;;;2224224;59;1335;-81
2024/03/03 10:15:17;;;;;;;;;;;;;;;;;;2225916;59;1984;-80
2024/03/03 10:17:48;;;;;;;;;;;;;;;;;;2218999;59;1303;-80
2024/03/03 10:20:18;;;;;;;;;;;;;;;;;;2211667;59;1940;-80
2024/03/03 10:22:48;;;;;;;;;;;;;;;;;;2210077;59;2128;-80
2024/03/03 10:25:18;;;;;;;;;;;;;;;;;;2209978;59;2278;-80
2024/03/03 10:27:50;;;;;;;;;;;;;;;;;;2211349;66;1999;-80
2024/03/03 10:30:22;;;;;;;;;;;;;;;;;;2211131;59;2139;-80
2024/03/03 10:33:01;;;;;;;;;;;;;;;;;;2207531;59;2207;-80
2024/03/03 10:35:32;;;;;;;;;;;;;;;;;;2213199;59;2476;-80
2024/03/03 10:38:02;;;;;;;;;;;;;;;;;;2210646;59;1619;-80
2024/03/03 10:40:32;;;;;;;;;;;;;;;;;;2212965;66;3095;-80
2024/03/03 10:43:03;;;;;;;;;;;;;;;;;;2211631;59;1491;-80
2024/03/03 10:45:33;;;;;;;;;;;;;;;;;;2213209;59;2906;-81
2024/03/03 10:48:04;;;;;;;;;;;;;;;;;;2212183;66;1582;-82
2024/03/03 10:50:34;;;;;;;;;;;;;;;;;;2211572;59;1475;-81
2024/03/03 10:53:11;;;;;;;;;;;;;;;;;;2213072;66;1704;-80
2024/03/03 10:55:41;;;;;;;;;;;;;;;;;;2210178;59;2158;-80
2024/03/03 10:58:11;;;;;;;;;;;;;;;;;;2221997;67;1155;-81
2024/03/03 11:00:42;;;;;;;;;;;;;;;;;;2221160;66;1972;-81
2024/03/03 11:03:13;;;;;;;;;;;;;;;;;;2214834;59;1724;-80
2024/03/03 11:05:44;;;;;;;;;;;;;;;;;;2209140;66;2065;-80
2024/03/03 11:08:15;;;;;;;;;;;;;;;;;;2211981;59;1766;-80
2024/03/03 11:10:48;;;;;;;;;;;;;;;;;;2211551;66;1682;-80
2024/03/03 11:13:19;;;;;;;;;;;;;;;;;;2211810;59;1525;-80
2024/03/03 11:15:51;;;;;;;;;;;;;;;;;;2209254;66;1626;-80
2024/03/03 11:18:24;;;;;;;;;;;;;;;;;;2208600;67;1757;-80
2024/03/03 11:20:58;;;;;;;;;;;;;;;;;;2210110;59;2198;-80
2024/03/03 11:23:42;;;;;;;;;;;;;;;;;;2207778;59;2246;-80
2024/03/03 11:26:19;;;;;;;;;;;;;;;;;;2210864;60;1386;-81
2024/03/03 11:28:53;;;;;;;;;;;;;;;;;;2210468;66;2010;-80
2024/03/03 11:31:24;;;;;;;;;;;;;;;;;;2208327;59;2309;-79
2024/03/03 11:33:55;;;;;;;;;;;;;;;;;;2207614;59;1409;-80
2024/03/03 11:36:26;;;;;;;;;;;;;;;;;;2213270;66;2156;-80
2024/03/03 11:38:57;;;;;;;;;;;;;;;;;;2220493;59;2190;-80
2024/03/03 11:41:28;;;;;;;;;;;;;;;;;;2222452;59;1928;-80
2024/03/03 11:43:59;;;;;;;;;;;;;;;;;;2222680;66;1343;-80
2024/03/03 11:46:48;;;;;;;;;;;;;;;;;;2221950;59;1707;-81
2024/03/03 11:49:23;;;;;;;;;;;;;;;;;;2213011;59;1472;-80
2024/03/03 11:51:53;;;;;;;;;;;;;;;;;;2217905;59;1430;-81
2024/03/03 11:54:31;;;;;;;;;;;;;;;;;;2214739;66;1503;-81
2024/03/03 11:57:02;;;;;;;;;;;;;;;;;;2211649;59;2206;-81
2024/03/03 11:59:33;;;;;;;;;;;;;;;;;;2211249;66;1582;-81
2024/03/03 12:02:03;;;;;;;;;;;;;;;;;;2219592;59;1949;-81
2024/03/03 12:04:33;;;;;;;;;;;;;;;;;;2218956;59;1516;-80
2024/03/03 12:07:04;;;;;;;;;;;;;;;;;;2211930;67;1462;-80
2024/03/03 12:09:40;;;;;;;;;;;;;;;;;;2216314;58;1221;-80
2024/03/03 12:12:10;;;;;;;;;;;;;;;;;;2217190;66;1975;-80
2024/03/03 12:14:41;;;;;;;;;;;;;;;;;;2215042;59;1580;-80
2024/03/03 12:17:11;;;;;;;;;;;;;;;;;;2213119;66;1514;-80
2024/03/03 12:19:41;;;;;;;;;;;;;;;;;;2212535;66;1500;-80
2024/03/03 12:22:12;;;;;;;;;;;;;;;;;;2208886;59;2905;-81
2024/03/03 12:24:42;;;;;;;;;;;;;;;;;;2211196;66;1429;-81
2024/03/03 12:27:12;;;;;;;;;;;;;;;;;;2207018;66;2202;-80
2024/03/03 12:29:56;;;;;;;;;;;;;;;;;;2211389;66;1574;-80
2024/03/03 12:32:27;;;;;;;;;;;;;;;;;;2210064;59;2226;-81
2024/03/03 12:34:57;;;;;;;;;;;;;;;;;;2209558;66;1608;-81
2024/03/03 12:37:27;;;;;;;;;;;;;;;;;;2211124;66;1544;-81
2024/03/03 12:39:57;;;;;;;;;;;;;;;;;;2211081;59;2113;-82
2024/03/03 12:42:27;;;;;;;;;;;;;;;;;;2211435;59;1828;-81
2024/03/03 12:44:59;;;;;;;;;;;;;;;;;;2212459;59;2159;-82
2024/03/03 12:47:29;;;;;;;;;;;;;;;;;;2211544;59;1774;-82
2024/03/03 12:49:59;;;;;;;;;;;;;;;;;;2211073;59;1498;-82
2024/03/03 12:52:29;;;;;;;;;;;;;;;;;;2211785;59;1864;-82
2024/03/03 12:54:59;;;;;;;;;;;;;;;;;;2211603;59;1510;-82
2024/03/03 12:57:30;;;;;;;;;;;;;;;;;;2207966;59;1535;-82
2024/03/03 13:00:00;;;;;;;;;;;;;;;;;;2206825;66;1940;-83
2024/03/03 13:02:31;;;;;;;;;;;;;;;;;;2211353;59;1647;-82
2024/03/03 13:05:01;;;;;;;;;;;;;;;;;;2212102;59;1461;-82
2024/03/03 13:07:31;;;;;;;;;;;;;;;;;;2209094;66;1909;-81
2024/03/03 13:10:18;;;;;;;;;;;;;;;;;;2215222;59;1453;-82
2024/03/03 13:12:49;;;;;;;;;;;;;;;;;;2220600;59;1384;-82
2024/03/03 13:15:20;;;;;;;;;;;;;;;;;;2216776;67;1752;-81
2024/03/03 13:18:06;;;;;;;;;;;;;;;;;;2212077;66;1550;-81
2024/03/03 13:20:36;;;;;;;;;;;;;;;;;;2211764;66;1952;-81
2024/03/03 13:23:07;;;;;;;;;;;;;;;;;;2211883;66;1566;-81
2024/03/03 13:25:41;;;;;;;;;;;;;;;;;;2211078;66;2428;-82
2024/03/03 13:28:13;;;;;;;;;;;;;;;;;;2209946;66;1411;-81
2024/03/03 13:30:58;;;;;;;;;;;;;;;;;;2212537;66;1391;-81
2024/03/03 13:33:33;;;;;;;;;;;;;;;;;;2213618;59;1410;-82
2024/03/03 13:36:04;;;;;;;;;;;;;;;;;;2212103;66;1355;-81
2024/03/03 13:38:34;;;;;;;;;;;;;;;;;;2211856;59;1374;-83
2024/03/03 13:41:05;;;;;;;;;;;;;;;;;;2210976;59;2953;-82
2024/03/03 13:43:35;;;;;;;;;;;;;;;;;;2210400;60;1342;-83
2024/03/03 13:46:05;;;;;;;;;;;;;;;;;;2211271;59;1721;-83
2024/03/03 13:48:36;;;;;;;;;;;;;;;;;;2212024;59;1408;-82
2024/03/03 13:51:06;;;;;;;;;;;;;;;;;;2211897;66;1487;-81
2024/03/03 13:53:36;;;;;;;;;;;;;;;;;;2214292;66;1563;-83
2024/03/03 13:56:06;;;;;;;;;;;;;;;;;;2218806;59;1579;-82
2024/03/03 13:58:37;;;;;;;;;;;;;;;;;;2216749;67;1271;-82
2024/03/03 14:01:09;;;;;;;;;;;;;;;;;;2208515;66;2357;-81
2024/03/03 14:03:39;;;;;;;;;;;;;;;;;;2214078;59;1760;-81
2024/03/03 14:06:10;;;;;;;;;;;;;;;;;;2213634;59;1525;-82
2024/03/03 14:08:40;;;;;;;;;;;;;;;;;;2212207;59;1510;-81
2024/03/03 14:11:11;;;;;;;;;;;;;;;;;;2211768;59;2192;-82
2024/03/03 14:13:41;;;;;;;;;;;;;;;;;;2211279;66;1558;-81
2024/03/03 14:16:11;;;;;;;;;;;;;;;;;;2207998;66;1715;-81
2024/03/03 14:18:43;;;;;;;;;;;;;;;;;;2212183;59;2582;-81
2024/03/03 14:21:13;;;;;;;;;;;;;;;;;;2211161;66;1906;-81
2024/03/03 14:23:43;;;;;;;;;;;;;;;;;;2209281;66;1473;-81
2024/03/03 14:26:13;;;;;;;;;;;;;;;;;;2210127;59;1480;-81
2024/03/03 14:28:44;;;;;;;;;;;;;;;;;;2211074;59;1411;-81
2024/03/03 14:31:14;;;;;;;;;;;;;;;;;;2207694;66;1837;-81
2024/03/03 14:33:45;;;;;;;;;;;;;;;;;;2211113;59;2443;-82
2024/03/03 14:36:16;;;;;;;;;;;;;;;;;;2209830;66;1767;-82
2024/03/03 14:38:46;;;;;;;;;;;;;;;;;;2212686;66;1555;-82
2024/03/03 14:41:16;;;;;;;;;;;;;;;;;;2212828;66;2230;-82
2024/03/03 14:43:47;;;;;;;;;;;;;;;;;;2215156;59;1394;-82
2024/03/03 14:46:18;;;;;;;;;;;;;;;;;;2218602;59;1879;-82
2024/03/03 14:48:48;;;;;;;;;;;;;;;;;;2213395;59;110296;-82
2024/03/03 14:51:18;;;;;;;;;;;;;;;;;;2207574;63;15754;-82
2024/03/03 14:53:48;;;;;;;;;;;;;;;;;;2205226;67;1397;-82
2024/03/03 14:56:18;;;;;;;;;;;;;;;;;;2204581;59;112265;-82
2024/03/03 14:58:49;;;;;;;;;;;;;;;;;;2216310;59;2175;-82
2024/03/03 15:01:19;;;;;;;;;;;;;;;;;;2216717;59;1999;-82
2024/03/03 15:03:50;;;;;;;;;;;;;;;;;;2216359;59;1586;-82
2024/03/03 15:06:20;;;;;;;;;;;;;;;;;;2218245;66;2052;-83
2024/03/03 15:08:50;;;;;;;;;;;;;;;;;;2220935;59;1255;-82
2024/03/03 15:11:20;;;;;;;;;;;;;;;;;;2223519;66;1698;-82
2024/03/03 15:13:51;;;;;;;;;;;;;;;;;;2220874;59;1344;-82
2024/03/03 15:16:21;;;;;;;;;;;;;;;;;;2215514;59;1905;-82
2024/03/03 15:18:52;;;;;;;;;;;;;;;;;;2216783;66;1712;-82
2024/03/03 15:21:22;;;;;;;;;;;;;;;;;;2212720;66;1992;-82
2024/03/03 15:23:52;;;;;;;;;;;;;;;;;;2212870;66;1447;-82
2024/03/03 15:26:24;;;;;;;;;;;;;;;;;;2212101;66;1664;-82
2024/03/03 15:28:55;;;;;;;;;;;;;;;;;;2211932;66;1648;-82
2024/03/03 15:31:25;;;;;;;;;;;;;;;;;;2212605;66;1612;-82
2024/03/03 15:33:55;;;;;;;;;;;;;;;;;;2211248;59;1972;-82
2024/03/03 15:36:26;;;;;;;;;;;;;;;;;;2209298;66;1286;-82
2024/03/03 15:38:56;;;;;;;;;;;;;;;;;;2211998;59;1744;-82
2024/03/03 15:41:26;;;;;;;;;;;;;;;;;;2211762;66;1935;-81
2024/03/03 15:43:59;;;;;;;;;;;;;;;;;;2208318;66;1831;-81
2024/03/03 15:46:29;;;;;;;;;;;;;;;;;;2212514;59;1589;-81
2024/03/03 15:48:59;;;;;;;;;;;;;;;;;;2211286;66;1592;-83
2024/03/03 15:51:30;;;;;;;;;;;;;;;;;;2211881;66;1571;-83
2024/03/03 15:54:00;;;;;;;;;;;;;;;;;;2207769;59;1711;-83
2024/03/03 15:56:30;;;;;;;;;;;;;;;;;;2211123;67;1631;-83
2024/03/03 15:59:00;;;;;;;;;;;;;;;;;;2210562;59;1678;-82
2024/03/03 16:01:31;;;;;;;;;;;;;;;;;;2211842;66;1931;-83
2024/03/03 16:04:01;;;;;;;;;;;;;;;;;;2210581;59;1453;-83
2024/03/03 16:06:31;;;;;;;;;;;;;;;;;;2211869;66;1520;-82
2024/03/03 16:09:03;;;;;;;;;;;;;;;;;;2211458;66;1563;-83
2024/03/03 16:11:34;;;;;;;;;;;;;;;;;;2213261;59;1795;-83
2024/03/03 16:14:04;;;;;;;;;;;;;;;;;;2212453;59;1506;-83
2024/03/03 16:16:36;;;;;;;;;;;;;;;;;;2225208;59;1426;-83
2024/03/03 16:19:06;;;;;;;;;;;;;;;;;;2225889;66;1262;-82
2024/03/03 16:21:36;;;;;;;;;;;;;;;;;;2220601;67;1898;-83
2024/03/03 16:24:06;;;;;;;;;;;;;;;;;;2212779;66;1413;-83
2024/03/03 16:26:38;;;;;;;;;;;;;;;;;;2211304;59;2235;-83
2024/03/03 16:29:08;;;;;;;;;;;;;;;;;;2210939;66;1571;-83
2024/03/03 16:31:38;;;;;;;;;;;;;;;;;;2211666;59;1635;-83
2024/03/03 16:34:09;;;;;;;;;;;;;;;;;;2208065;66;1444;-83
2024/03/03 16:36:40;;;;;;;;;;;;;;;;;;2212142;66;1897;-82
2024/03/03 16:39:10;;;;;;;;;;;;;;;;;;2207655;66;3288;-85
2024/03/03 16:41:40;;;;;;;;;;;;;;;;;;2210929;66;1976;-84
2024/03/03 16:44:10;;;;;;;;;;;;;;;;;;2212627;59;1570;-82
2024/03/03 16:46:40;;;;;;;;;;;;;;;;;;2209852;59;1804;-82
2024/03/03 16:49:11;;;;;;;;;;;;;;;;;;2207341;66;2433;-82
2024/03/03 16:51:41;;;;;;;;;;;;;;;;;;2210427;66;2325;-85
2024/03/03 16:54:11;;;;;;;;;;;;;;;;;;2209375;66;6089;-85
2024/03/03 16:56:41;;;;;;;;;;;;;;;;;;2210875;59;1544;-85
2024/03/03 16:59:12;;;;;;;;;;;;;;;;;;2208779;66;1747;-82
2024/03/03 17:01:42;;;;;;;;;;;;;;;;;;2209837;66;2003;-82
2024/03/03 17:04:12;;;;;;;;;;;;;;;;;;2213041;59;1488;-82
2024/03/03 17:06:43;;;;;;;;;;;;;;;;;;2220908;66;1290;-85
2024/03/03 17:09:13;;;;;;;;;;;;;;;;;;2223057;59;1191;-85
2024/03/03 17:11:43;;;;;;;;;;;;;;;;;;2221408;66;1216;-85
2024/03/03 17:14:14;;;;;;;;;;;;;;;;;;2211966;59;1892;-85
2024/03/03 17:16:44;;;;;;;;;;;;;;;;;;2208147;66;2102;-85
2024/03/03 17:19:16;;;;;;;;;;;;;;;;;;2213080;66;1453;-85
2024/03/03 17:21:47;;;;;;;;;;;;;;;;;;2210561;66;1929;-83
2024/03/03 17:24:17;;;;;;;;;;;;;;;;;;2211375;66;1367;-83
2024/03/03 17:26:47;;;;;;;;;;;;;;;;;;2207527;67;1776;-83